Time;durP1;ratioP1;P1;durP2;ratioP2;P2;SDS_P1;SDS_P2;PMS_P1;PMS_P2;Temp;Humidity;BMP_temperature;BMP_pressure;BME280_temperature;BME280_humidity;BME280_pressure;Samples;Min_cycle;Max_cycle;Signal;HPM_P1;HPM_P2
2022/06/18 00:02:15;;;;;;;;;;;;;;;;;;;;;
2022/06/18 00:06:02;;;;;;;2.83;1.83;;;22.00;82.30;;;;;;6240405;22;20024;-94
2022/06/18 00:09:14;;;;;;;2.55;1.85;;;22.00;82.40;;;;;;6240837;22;20004;-94
2022/06/18 00:16:01;;;;;;;1.88;1.73;;;21.90;82.50;;;;;;6281955;22;20388;-94
2022/06/18 00:19:13;;;;;;;;;;;;;;;;;;;;;
2022/06/18 00:22:35;;;;;;;;;;;;;;;;;;;;;
2022/06/18 00:26:09;;;;;;;;;;;;;;;;;;;;;
2022/06/18 00:37:14;;;;;;;;;;;;;;;;;;;;;
2022/06/18 01:05:43;;;;;;;;;;;;;;;;;;;;;
2022/06/18 01:12:18;;;;;;;;;;;;;;;;;;;;;
2022/06/18 01:15:30;;;;;;;;;;;;;;;;;;;;;
2022/06/18 01:18:31;;;;;;;3.38;2.30;;;21.20;85.40;;;;;;6186102;23;20414;-96
2022/06/18 01:25:09;;;;;;;;;;;;;;;;;;;;;
2022/06/18 01:28:19;;;;;;;;;;;;;;;;;;;;;
2022/06/18 01:31:03;;;;;;;;;;;;;;;;;;;;;
2022/06/18 01:34:22;;;;;;;;;;;;;;;;;;;;;
2022/06/18 01:37:16;;;;;;;;;;;;;;;;;;;;;
2022/06/18 01:40:07;;;;;;;;;;;;;;;;;;;;;
2022/06/18 01:44:09;;;;;;;;;;;;;;;;;;;;;
2022/06/18 01:46:47;;;;;;;;;;;;;;;;;;;;;
2022/06/18 01:50:02;;;;;;;3.85;2.70;;;21.00;86.30;;;;;;6266300;22;20042;-93
2022/06/18 01:53:12;;;;;;;2.50;2.30;;;21.00;86.40;;;;;;6295893;22;20003;-94
2022/06/18 02:00:10;;;;;;;;;;;;;;;;;;;;;
2022/06/18 02:06:00;;;;;;;;;;;;;;;;;;;;;
2022/06/18 02:29:07;;;;;;;;;;;;;;;;;;;;;
2022/06/18 02:43:26;;;;;;;;;;;;;;;;;;;;;
2022/06/18 02:47:22;;;;;;;;;;;;;;;;;;;;;
2022/06/18 03:00:46;;;;;;;;;;;;;;;;;;;;;
2022/06/18 03:03:50;;;;;;;;;;;;;;;;;;;;;
2022/06/18 03:16:45;;;;;;;;;;;;;;;;;;;;;
2022/06/18 03:23:26;;;;;;;;;;;;;;;;;;;;;
2022/06/18 03:29:59;;;;;;;;;;;;;;;;;;;;;
2022/06/18 03:36:26;;;;;;;;;;;;;;;;;;;;;
2022/06/18 03:40:07;;;;;;;;;;;;;;;;;;;;;
2022/06/18 04:00:05;;;;;;;;;;;;;;;;;;;;;
2022/06/18 04:10:13;;;;;;;;;;;;;;;;;;;;;
2022/06/18 04:13:30;;;;;;;;;;;;;;;;;;;;;
2022/06/18 04:27:06;;;;;;;;;;;;;;;;;;;;;
2022/06/18 04:40:31;;;;;;;4.78;4.00;;;20.80;90.00;;;;;;6184521;23;20063;-94
2022/06/18 04:43:57;;;;;;;;;;;;;;;;;;;;;
2022/06/18 05:13:57;;;;;;;;;;;;;;;;;;;;;
2022/06/18 05:16:56;;;;;;;5.93;4.28;;;21.10;91.00;;;;;;6025310;23;20089;-92
2022/06/18 05:37:54;;;;;;;;;;;;;;;;;;;;;
2022/06/18 05:41:03;;;;;;;;;;;;;;;;;;;;;
2022/06/18 05:50:45;;;;;;;;;;;;;;;;;;;;;
2022/06/18 05:53:55;;;;;;;;;;;;;;;;;;;;;
2022/06/18 05:57:45;;;;;;;;;;;;;;;;;;;;;
2022/06/18 06:00:56;;;;;;;;;;;;;;;;;;;;;
2022/06/18 06:13:18;;;;;;;9.13;5.55;;;21.80;90.80;;;;;;6334574;22;20022;-91
2022/06/18 06:15:44;;;;;;;10.68;5.85;;;21.80;90.80;;;;;;6332467;22;19987;-91
2022/06/18 06:18:13;;;;;;;6.47;5.05;;;21.90;90.80;;;;;;6328054;22;20006;-89
2022/06/18 06:20:44;;;;;;;6.00;5.10;;;21.90;90.80;;;;;;6320510;22;20012;-90
2022/06/18 06:23:13;;;;;;;8.20;5.68;;;22.00;90.70;;;;;;6314675;22;20000;-91
2022/06/18 06:25:39;;;;;;;6.82;5.03;;;22.00;90.80;;;;;;6309368;22;20005;-89
2022/06/18 06:28:09;;;;;;;9.05;5.53;;;22.10;90.80;;;;;;6308164;22;20007;-91
2022/06/18 06:30:36;;;;;;;7.10;5.20;;;22.10;90.90;;;;;;6307585;22;20010;-89
2022/06/18 06:33:01;;;;;;;7.10;5.35;;;22.20;90.80;;;;;;6308214;22;20057;-91
2022/06/18 06:35:29;;;;;;;8.63;5.40;;;22.20;90.90;;;;;;6307860;22;20432;-90
2022/06/18 06:37:58;;;;;;;8.02;5.22;;;22.30;90.90;;;;;;6282539;22;20003;-90
2022/06/18 06:40:24;;;;;;;8.23;4.68;;;22.30;90.90;;;;;;6307540;22;20011;-89
2022/06/18 06:42:56;;;;;;;8.63;5.47;;;22.40;90.90;;;;;;6257146;22;20150;-87
2022/06/18 06:45:25;;;;;;;6.18;4.93;;;22.50;90.90;;;;;;6308545;22;20370;-89
2022/06/18 06:47:54;;;;;;;7.88;4.95;;;22.50;90.70;;;;;;6308814;22;20002;-88
2022/06/18 06:50:44;;;;;;;7.78;5.22;;;22.50;90.70;;;;;;6307597;22;20300;-88
2022/06/18 06:53:12;;;;;;;7.38;5.25;;;22.60;90.60;;;;;;6308493;22;19999;-89
2022/06/18 06:58:24;;;;;;;7.03;5.43;;;22.70;90.50;;;;;;6309204;22;20046;-89
2022/06/18 07:00:53;;;;;;;7.05;4.80;;;22.80;90.40;;;;;;6306841;22;20473;-90
2022/06/18 07:03:24;;;;;;;7.30;5.37;;;22.90;90.30;;;;;;6307607;22;20006;-88
2022/06/18 07:05:50;;;;;;;8.57;5.40;;;22.90;90.30;;;;;;6307677;22;20018;-90
2022/06/18 07:08:15;;;;;;;8.65;5.40;;;22.90;90.30;;;;;;6309173;22;20003;-88
2022/06/18 07:10:43;;;;;;;9.05;5.78;;;23.00;90.30;;;;;;6309628;22;20060;-90
2022/06/18 07:13:09;;;;;;;6.80;5.00;;;23.10;90.20;;;;;;6308166;22;19999;-90
2022/06/18 07:15:35;;;;;;;7.07;5.30;;;23.10;90.10;;;;;;6307729;22;20247;-89
2022/06/18 07:18:03;;;;;;;6.55;5.25;;;23.20;90.10;;;;;;6282126;22;20011;-89
2022/06/18 07:20:30;;;;;;;8.85;6.20;;;23.20;90.10;;;;;;6307339;22;20068;-88
2022/06/18 07:22:58;;;;;;;6.82;5.68;;;23.30;90.10;;;;;;6281580;22;20011;-92
2022/06/18 07:25:24;;;;;;;7.80;5.78;;;23.40;90.10;;;;;;6307845;22;20011;-90
2022/06/18 07:27:52;;;;;;;11.40;5.78;;;23.40;90.00;;;;;;6307384;22;20353;-90
2022/06/18 07:30:19;;;;;;;6.57;5.43;;;23.50;89.80;;;;;;6307990;22;20063;-90
2022/06/18 07:32:47;;;;;;;7.95;5.35;;;23.50;89.60;;;;;;6307342;22;20049;-89
2022/06/18 07:35:19;;;;;;;7.47;5.50;;;23.60;89.60;;;;;;6282208;22;20000;-91
2022/06/18 07:37:48;;;;;;;5.88;4.68;;;23.70;89.70;;;;;;6307641;22;20003;-89
2022/06/18 07:40:14;;;;;;;7.32;5.40;;;23.70;89.70;;;;;;6307400;22;20007;-88
2022/06/18 07:42:43;;;;;;;8.25;5.65;;;23.80;89.60;;;;;;6307638;22;20015;-89
2022/06/18 07:45:24;;;;;;;10.85;5.43;;;23.90;89.60;;;;;;6307063;22;20078;-90
2022/06/18 07:47:51;;;;;;;6.00;5.15;;;23.90;89.40;;;;;;6307336;22;19999;-89
2022/06/18 07:50:20;;;;;;;8.07;5.28;;;24.00;89.20;;;;;;6281369;22;20035;-89
2022/06/18 07:52:46;;;;;;;8.30;5.45;;;24.00;89.10;;;;;;6307372;22;20083;-88
2022/06/18 07:55:19;;;;;;;6.57;5.47;;;24.10;89.10;;;;;;6308677;22;19995;-89
2022/06/18 07:57:46;;;;;;;9.35;5.55;;;24.20;89.00;;;;;;6309132;22;20002;-89
2022/06/18 08:00:15;;;;;;;11.65;6.63;;;24.20;88.80;;;;;;6307374;22;20483;-89
2022/06/18 08:02:42;;;;;;;7.97;4.95;;;24.20;88.50;;;;;;6307186;22;20058;-88
2022/06/18 08:05:48;;;;;;;;;;;;;;;;;;;;;
2022/06/18 08:09:14;;;;;;;;;;;;;;;;;;;;;
2022/06/18 08:49:58;;;;;;;8.88;4.82;;;25.20;87.40;;;;;;6315956;22;20027;-91
2022/06/18 08:52:49;;;;;;;;;;;;;;;;;;;;;
2022/06/18 08:55:41;;;;;;;8.38;4.68;;;25.30;87.00;;;;;;6311052;22;20074;-90
2022/06/18 08:58:21;;;;;;;4.97;3.60;;;25.40;87.00;;;;;;6309249;22;19999;-91
2022/06/18 09:01:15;;;;;;;6.88;4.10;;;25.40;87.10;;;;;;6310263;22;20007;-89
2022/06/18 09:04:16;;;;;;;7.53;5.03;;;25.50;87.10;;;;;;6290987;22;20078;-88
2022/06/18 09:07:02;;;;;;;5.63;4.22;;;25.60;87.00;;;;;;6308703;22;20029;-87
2022/06/18 09:10:12;;;;;;;7.10;4.30;;;25.60;86.70;;;;;;6309266;22;20077;-88
2022/06/18 09:13:29;;;;;;;;;;;;;;;;;;;;;
2022/06/18 09:16:29;;;;;;;;;;;;;;;;;;;;;
2022/06/18 09:19:12;;;;;;;10.80;4.30;;;25.90;86.50;;;;;;6309783;22;20082;-87
2022/06/18 09:21:55;;;;;;;6.53;4.05;;;25.90;86.30;;;;;;6307948;22;20003;-89
2022/06/18 09:24:53;;;;;;;9.65;4.13;;;26.00;86.80;;;;;;6309125;22;20433;-89
2022/06/18 09:28:08;;;;;;;8.40;3.85;;;25.90;86.10;;;;;;6308581;22;20004;-89
2022/06/18 09:30:58;;;;;;;7.47;3.85;;;26.10;86.20;;;;;;6233629;22;20494;-89
2022/06/18 09:34:32;;;;;;;6.82;3.83;;;26.10;86.10;;;;;;6308497;22;20007;-90
2022/06/18 09:37:14;;;;;;;;;;;;;;;;;;;;;
2022/06/18 09:40:22;;;;;;;;;;;;;;;;;;;;;
2022/06/18 09:43:42;;;;;;;;;;;;;;;;;;;;;
2022/06/18 09:50:06;;;;;;;;;;;;;;;;;;;;;
2022/06/18 10:01:27;;;;;;;;;;;;;;;;;;;;;
2022/06/18 10:29:29;;;;;;;6.03;3.00;;;26.90;80.90;;;;;;5926866;24;20009;-94
2022/06/18 10:31:58;;;;;;;6.20;2.85;;;27.00;80.60;;;;;;5910542;23;20009;-90
2022/06/18 10:45:21;;;;;;;6.85;3.20;;;27.10;79.70;;;;;;6084671;23;20284;-95
2022/06/18 11:25:01;;;;;;;;;;;;;;;;;;;;;
2022/06/18 11:28:39;;;;;;;;;;;;;;;;;;;;;
2022/06/18 11:35:50;;;;;;;;;;;;;;;;;;;;;
2022/06/18 11:46:44;;;;;;;;;;;;;;;;;;;;;
2022/06/18 14:19:20;;;;;;;;;;;;;;;;;;;;;
2022/06/18 14:23:36;;;;;;;;;;;;;;;;;;;;;
2022/06/18 14:26:23;;;;;;;5.80;2.90;;;29.00;70.70;;;;;;6163555;22;20084;-92
2022/06/18 15:29:39;;;;;;;;;;;;;;;;;;;;;
2022/06/18 15:36:25;;;;;;;;;;;;;;;;;;;;;
2022/06/18 15:54:44;;;;;;;;;;;;;;;;;;;;;
2022/06/18 16:22:33;;;;;;;3.88;2.33;;;28.80;72.90;;;;;;5793416;24;20026;-83
2022/06/18 16:25:16;;;;;;;5.20;3.20;;;28.80;72.90;;;;;;5979800;23;20013;-85
2022/06/18 16:27:51;;;;;;;7.40;3.55;;;28.80;73.00;;;;;;6190380;23;20012;-85
2022/06/18 16:30:17;;;;;;;7.10;3.50;;;28.80;72.80;;;;;;6187365;23;20470;-84
2022/06/18 16:32:46;;;;;;;8.52;4.25;;;28.70;72.70;;;;;;6212984;23;20011;-86
2022/06/18 16:35:12;;;;;;;5.90;3.23;;;28.70;72.70;;;;;;6187960;23;20454;-85
2022/06/18 16:37:38;;;;;;;6.82;3.60;;;28.70;72.70;;;;;;6187210;23;20000;-85
2022/06/18 16:40:07;;;;;;;6.15;3.63;;;28.70;72.70;;;;;;6187874;23;20084;-84
2022/06/18 16:42:37;;;;;;;5.15;3.25;;;28.60;72.70;;;;;;6187841;23;20011;-84
2022/06/18 16:45:18;;;;;;;;;;;28.60;72.70;;;;;;6213698;23;20457;-85
2022/06/18 16:47:46;;;;;;;5.22;3.50;;;28.60;72.80;;;;;;6277957;22;19906;-86
2022/06/18 16:50:18;;;;;;;6.68;3.75;;;28.50;73.00;;;;;;6310208;22;20003;-87
2022/06/18 16:52:44;;;;;;;6.10;3.50;;;28.50;73.10;;;;;;6309123;22;20325;-87
2022/06/18 16:55:20;;;;;;;10.38;3.67;;;28.50;73.20;;;;;;6231156;22;20000;-86
2022/06/18 16:57:46;;;;;;;7.65;3.67;;;28.50;73.00;;;;;;6308356;22;20002;-85
2022/06/18 17:00:20;;;;;;;3.75;3.00;;;28.40;72.60;;;;;;6281652;22;20029;-85
2022/06/18 17:02:46;;;;;;;5.22;2.53;;;28.50;73.00;;;;;;6308862;22;20333;-86
2022/06/18 17:05:12;;;;;;;5.32;3.13;;;28.40;73.00;;;;;;6281591;22;19995;-86
2022/06/18 17:07:38;;;;;;;4.90;2.72;;;28.40;72.90;;;;;;6255987;22;20010;-87
2022/06/18 17:10:07;;;;;;;6.25;3.10;;;28.40;73.00;;;;;;6281401;22;20364;-86
2022/06/18 17:12:34;;;;;;;5.97;3.55;;;28.30;73.10;;;;;;6307437;22;19995;-85
2022/06/18 17:15:00;;;;;;;8.10;3.67;;;28.30;73.20;;;;;;6231325;22;20089;-85
2022/06/18 17:17:25;;;;;;;6.03;3.22;;;28.30;73.50;;;;;;6277143;22;20046;-91
2022/06/18 17:19:52;;;;;;;5.68;3.00;;;28.30;73.60;;;;;;6306941;22;20310;-85
2022/06/18 17:22:20;;;;;;;3.20;2.60;;;28.20;73.60;;;;;;6308204;22;20007;-82
2022/06/18 17:33:02;;;;;;;5.30;2.95;;;28.10;73.80;;;;;;6308611;22;20022;-85
2022/06/18 17:35:30;;;;;;;6.22;2.70;;;28.00;73.70;;;;;;6309723;22;19996;-85
2022/06/18 17:37:55;;;;;;;4.95;2.50;;;28.00;73.90;;;;;;6311777;22;19995;-86
2022/06/18 17:40:21;;;;;;;3.33;2.25;;;27.90;73.90;;;;;;6332802;22;20018;-84
2022/06/18 17:42:51;;;;;;;4.07;2.15;;;27.90;74.10;;;;;;6336277;22;19995;-83
2022/06/18 17:45:17;;;;;;;5.57;2.72;;;27.80;74.10;;;;;;6335843;22;19987;-85
2022/06/18 17:47:43;;;;;;;5.07;2.90;;;27.80;74.20;;;;;;6335592;22;20038;-84
2022/06/18 17:50:09;;;;;;;5.40;2.80;;;27.80;74.20;;;;;;6334609;22;20031;-86
2022/06/18 17:52:35;;;;;;;7.50;2.72;;;27.70;74.10;;;;;;6302857;22;20432;-86
2022/06/18 17:55:00;;;;;;;4.35;2.60;;;27.60;74.00;;;;;;6326779;22;19999;-85
2022/06/18 17:57:26;;;;;;;6.25;2.78;;;27.70;74.20;;;;;;6311511;22;20011;-82
2022/06/18 17:59:55;;;;;;;4.95;2.60;;;27.60;74.30;;;;;;6282282;22;20090;-83
2022/06/18 18:02:25;;;;;;;5.35;2.60;;;27.60;74.50;;;;;;6307273;22;20013;-84
2022/06/18 18:04:51;;;;;;;6.63;2.75;;;27.60;74.50;;;;;;6308057;22;19999;-85
2022/06/18 18:07:19;;;;;;;5.78;2.70;;;27.60;74.50;;;;;;6308761;22;20004;-84
2022/06/18 18:09:48;;;;;;;4.72;2.88;;;27.50;74.70;;;;;;6308085;22;20010;-84
2022/06/18 18:12:16;;;;;;;5.63;2.40;;;27.50;74.80;;;;;;6281896;22;20094;-86
2022/06/18 18:14:46;;;;;;;5.40;2.25;;;27.40;74.70;;;;;;6308052;22;20002;-83
2022/06/18 18:17:14;;;;;;;5.40;2.10;;;27.40;74.90;;;;;;6308510;22;20471;-85
2022/06/18 18:19:40;;;;;;;3.78;2.10;;;27.40;75.00;;;;;;6305987;22;20018;-84
2022/06/18 18:22:06;;;;;;;4.13;2.03;;;27.30;75.10;;;;;;6307950;22;20410;-85
2022/06/18 18:24:32;;;;;;;4.35;2.00;;;27.20;75.30;;;;;;6306034;22;19999;-85
2022/06/18 18:27:03;;;;;;;3.80;2.00;;;27.20;75.50;;;;;;6306620;22;20373;-86
2022/06/18 18:29:30;;;;;;;3.95;2.33;;;27.10;75.80;;;;;;6308335;22;20065;-86
2022/06/18 18:31:58;;;;;;;4.25;1.88;;;27.10;76.10;;;;;;6306688;22;20486;-85
2022/06/18 18:34:25;;;;;;;3.63;1.77;;;27.00;76.30;;;;;;6281174;22;20021;-85
2022/06/18 18:36:50;;;;;;;3.22;1.60;;;26.90;76.50;;;;;;6280732;22;20007;-85
2022/06/18 18:39:17;;;;;;;2.47;1.35;;;26.90;76.70;;;;;;6306179;22;20030;-84
2022/06/18 18:41:42;;;;;;;5.88;1.80;;;26.70;76.90;;;;;;6305996;22;20061;-85
2022/06/18 18:44:08;;;;;;;4.45;1.70;;;26.60;77.10;;;;;;6306445;22;20363;-85
2022/06/18 18:46:35;;;;;;;4.53;1.52;;;26.60;77.30;;;;;;6305650;22;20035;-86
2022/06/18 18:49:03;;;;;;;3.03;1.25;;;26.40;77.40;;;;;;6307673;22;20433;-86
2022/06/18 18:51:29;;;;;;;4.55;1.98;;;26.30;77.40;;;;;;6307909;22;20000;-84
2022/06/18 18:53:55;;;;;;;3.33;1.65;;;26.20;77.30;;;;;;6308342;22;20004;-84
2022/06/18 18:56:20;;;;;;;3.97;1.80;;;26.00;77.60;;;;;;6280191;22;20057;-86
2022/06/18 18:58:48;;;;;;;6.10;1.67;;;25.90;77.90;;;;;;6305821;22;20009;-87
2022/06/18 19:01:15;;;;;;;5.13;1.77;;;25.80;78.10;;;;;;6305978;22;20033;-86
2022/06/18 19:03:41;;;;;;;4.72;1.70;;;25.70;78.20;;;;;;6306061;22;20039;-83
2022/06/18 19:06:07;;;;;;;5.20;1.95;;;25.60;78.30;;;;;;6280292;22;20011;-85
2022/06/18 19:08:32;;;;;;;4.50;1.40;;;25.60;78.40;;;;;;6280661;22;20015;-85
2022/06/18 19:10:59;;;;;;;4.07;1.40;;;25.50;78.50;;;;;;6280490;22;20029;-85
2022/06/18 19:13:25;;;;;;;3.97;1.65;;;25.40;78.50;;;;;;6280334;22;20044;-86
2022/06/18 19:15:53;;;;;;;4.82;1.50;;;25.30;78.50;;;;;;6307056;22;20074;-85
2022/06/18 19:18:28;;;;;;;3.13;1.40;;;25.20;78.60;;;;;;6307908;22;20527;-85
2022/06/18 19:20:55;;;;;;;5.22;1.50;;;25.10;78.80;;;;;;6305754;22;20364;-85
2022/06/18 19:23:23;;;;;;;4.80;1.40;;;25.00;78.80;;;;;;6306347;22;20011;-85
2022/06/18 19:25:50;;;;;;;3.75;1.65;;;24.90;78.80;;;;;;6306125;22;20038;-85
2022/06/18 19:28:29;;;;;;;3.45;1.50;;;24.90;79.50;;;;;;6306040;22;20006;-84
2022/06/18 19:30:58;;;;;;;6.80;2.00;;;24.80;78.90;;;;;;6307477;22;20056;-85
2022/06/18 19:33:25;;;;;;;6.53;1.80;;;24.70;78.70;;;;;;6308033;22;19995;-85
2022/06/18 19:35:51;;;;;;;6.40;1.60;;;24.40;79.00;;;;;;6305925;22;20003;-84
2022/06/18 19:38:19;;;;;;;2.75;1.27;;;24.30;79.20;;;;;;6306141;22;20004;-84
2022/06/18 19:40:44;;;;;;;5.85;1.88;;;24.20;79.50;;;;;;6308117;22;20003;-85
2022/06/18 19:43:10;;;;;;;5.93;2.22;;;24.10;79.50;;;;;;6282238;22;20034;-86
2022/06/18 19:45:38;;;;;;;4.00;1.55;;;24.10;79.70;;;;;;6310488;22;20026;-85
2022/06/18 19:48:05;;;;;;;7.72;2.00;;;24.00;79.70;;;;;;6312676;22;19999;-85
2022/06/18 19:50:31;;;;;;;4.55;1.65;;;23.90;79.80;;;;;;6316390;22;20103;-85
2022/06/18 19:52:57;;;;;;;7.05;1.52;;;23.80;80.00;;;;;;6322908;22;19996;-85
2022/06/18 19:55:24;;;;;;;4.55;1.40;;;23.70;80.20;;;;;;6330128;22;19997;-85
2022/06/18 19:57:50;;;;;;;5.07;1.73;;;23.60;80.40;;;;;;6335131;22;19995;-83
2022/06/18 20:00:21;;;;;;;2.38;1.10;;;23.60;80.60;;;;;;6334506;22;20051;-85
2022/06/18 20:02:48;;;;;;;3.17;1.40;;;23.60;80.70;;;;;;6334627;22;19996;-84
2022/06/18 20:05:14;;;;;;;3.60;1.40;;;23.50;80.80;;;;;;6307633;22;19994;-85
2022/06/18 20:07:40;;;;;;;4.43;1.65;;;23.50;80.90;;;;;;6288672;22;20011;-85
2022/06/18 20:10:08;;;;;;;5.57;1.70;;;23.40;80.90;;;;;;6308376;22;20072;-85
2022/06/18 20:12:44;;;;;;;4.00;1.52;;;23.40;81.10;;;;;;6306901;22;19995;-86
2022/06/18 20:15:11;;;;;;;4.43;1.35;;;23.30;81.10;;;;;;6307511;22;20006;-84
2022/06/18 20:17:37;;;;;;;4.97;1.75;;;23.30;81.20;;;;;;6305218;22;20345;-85
2022/06/18 20:20:04;;;;;;;2.70;1.17;;;23.30;81.20;;;;;;6254792;22;20090;-85
2022/06/18 20:22:30;;;;;;;4.13;1.48;;;23.30;81.40;;;;;;6307720;22;20042;-84
2022/06/18 20:24:55;;;;;;;3.45;1.35;;;23.30;81.40;;;;;;6281291;22;20011;-85
2022/06/18 20:27:21;;;;;;;5.50;1.40;;;23.20;81.30;;;;;;6309546;22;20007;-85
2022/06/18 20:29:48;;;;;;;6.35;1.30;;;23.20;81.20;;;;;;6281924;22;20007;-85
2022/06/18 20:32:14;;;;;;;2.38;1.33;;;23.10;81.10;;;;;;6309075;22;19996;-86
2022/06/18 20:34:40;;;;;;;3.60;1.38;;;23.10;81.20;;;;;;6309110;22;20003;-84
2022/06/18 20:37:06;;;;;;;5.80;1.35;;;23.10;81.00;;;;;;6307771;22;19999;-84
2022/06/18 20:39:33;;;;;;;2.85;1.40;;;23.00;81.00;;;;;;6307022;22;20011;-85
2022/06/18 20:42:02;;;;;;;2.83;1.42;;;23.00;81.10;;;;;;6281260;22;20004;-85
2022/06/18 20:44:28;;;;;;;5.32;1.65;;;23.00;81.00;;;;;;6307662;22;20022;-85
2022/06/18 20:46:53;;;;;;;5.43;1.33;;;23.00;81.00;;;;;;6307059;22;20429;-86
2022/06/18 20:49:19;;;;;;;4.68;1.15;;;23.00;81.00;;;;;;6282080;22;20007;-85
2022/06/18 20:51:48;;;;;;;3.15;1.35;;;22.90;81.00;;;;;;6256142;22;20003;-85
2022/06/18 20:59:38;;;;;;;3.13;1.60;;;22.70;80.90;;;;;;6319668;22;20038;-85
2022/06/18 21:02:05;;;;;;;5.00;2.10;;;22.70;80.90;;;;;;6308432;22;20440;-84
2022/06/18 21:04:30;;;;;;;2.50;1.45;;;22.60;80.60;;;;;;6309139;22;20083;-84
2022/06/18 21:06:56;;;;;;;3.70;1.80;;;22.70;80.70;;;;;;6281618;22;20415;-84
2022/06/18 21:09:22;;;;;;;4.85;1.48;;;22.50;80.30;;;;;;6281784;22;20429;-84
2022/06/18 21:11:47;;;;;;;2.65;1.10;;;22.50;80.00;;;;;;6306682;22;20007;-84
2022/06/18 21:14:13;;;;;;;3.85;1.27;;;22.30;80.10;;;;;;6309144;22;20096;-85
2022/06/18 21:16:39;;;;;;;3.47;1.67;;;22.30;80.10;;;;;;6256099;22;20020;-85
2022/06/18 21:19:05;;;;;;;5.78;1.77;;;22.20;80.00;;;;;;6281553;22;20094;-85
2022/06/18 21:21:31;;;;;;;4.30;1.70;;;22.10;79.90;;;;;;6255656;22;20413;-84
2022/06/18 21:23:56;;;;;;;4.05;1.40;;;22.00;80.10;;;;;;6281397;22;20003;-85
2022/06/18 21:26:26;;;;;;;4.55;1.08;;;21.90;80.30;;;;;;6281179;22;20003;-85
2022/06/18 21:28:51;;;;;;;3.85;1.55;;;21.90;80.40;;;;;;6307181;22;20003;-86
2022/06/18 21:37:00;;;;;;;4.32;1.80;;;21.80;80.70;;;;;;6308561;22;20129;-86
2022/06/18 21:39:27;;;;;;;3.30;1.38;;;21.70;80.90;;;;;;6284573;22;19999;-85
2022/06/18 21:41:53;;;;;;;5.35;2.20;;;21.60;81.10;;;;;;6307102;22;20078;-85
2022/06/18 21:44:22;;;;;;;5.10;1.58;;;21.50;81.20;;;;;;6255730;22;20000;-85
2022/06/18 21:46:49;;;;;;;6.32;1.60;;;21.40;81.30;;;;;;6281940;22;20007;-85
2022/06/18 21:49:15;;;;;;;6.28;1.70;;;21.40;81.40;;;;;;6306971;22;19995;-85
2022/06/18 21:51:41;;;;;;;6.75;1.67;;;21.30;81.50;;;;;;6256179;22;20004;-86
2022/06/18 21:54:07;;;;;;;5.55;1.52;;;21.20;81.60;;;;;;6307062;22;20003;-85
2022/06/18 21:56:34;;;;;;;6.13;1.83;;;21.10;81.60;;;;;;6307666;22;20425;-86
2022/06/18 21:59:00;;;;;;;7.03;1.77;;;21.10;81.70;;;;;;6284532;22;20014;-85
2022/06/18 22:01:26;;;;;;;4.30;1.80;;;21.10;81.80;;;;;;6334230;22;20046;-84
2022/06/18 22:03:52;;;;;;;5.97;1.77;;;21.00;81.80;;;;;;6309492;22;19995;-90
2022/06/18 22:06:18;;;;;;;6.88;1.80;;;21.00;81.90;;;;;;6283967;22;19999;-89
2022/06/18 22:08:45;;;;;;;5.13;1.45;;;20.90;82.00;;;;;;6284305;22;19998;-86
2022/06/18 22:11:11;;;;;;;4.63;1.65;;;20.90;82.10;;;;;;6334243;22;20014;-87
2022/06/18 22:17:57;;;;;;;;;;;;;;;;;;;;;
2022/06/18 22:31:20;;;;;;;;;;;;;;;;;;;;;
2022/06/18 22:34:37;;;;;;;;;;;;;;;;;;;;;
2022/06/18 22:47:49;;;;;;;;;;;;;;;;;;;;;
2022/06/18 22:57:36;;;;;;;;;;;;;;;;;;;;;
2022/06/18 23:00:43;;;;;;;4.90;1.92;;;19.40;81.90;;;;;;6304237;22;20078;-90
2022/06/18 23:06:37;;;;;;;10.23;2.60;;;19.20;81.70;;;;;;6307991;22;20011;-89
2022/06/18 23:13:09;;;;;;;;;;;;;;;;;;;;;
2022/06/18 23:16:20;;;;;;;;;;;;;;;;;;;;;
2022/06/18 23:26:15;;;;;;;;;;;;;;;;;;;;;
2022/06/18 23:29:12;;;;;;;8.55;2.35;;;18.70;80.90;;;;;;6306081;22;20500;-90
2022/06/18 23:39:07;;;;;;;5.35;2.05;;;18.40;80.30;;;;;;6306173;22;20046;-90
2022/06/18 23:42:06;;;;;;;;;;;;;;;;;;;;;
2022/06/18 23:54:47;;;;;;;;;;;;;;;;;;;;;
2022/06/18 23:57:54;;;;;;;;;;;;;;;;;;;;;
